Time;durP1;ratioP1;P1;durP2;ratioP2;P2;SDS_P1;SDS_P2;PMS_P1;PMS_P2;Temp;Humidity;BMP_temperature;BMP_pressure;BME280_temperature;BME280_humidity;BME280_pressure;Samples;Min_cycle;Max_cycle;Signal;HPM_P1;HPM_P2
2021/01/18 07:54:44;;;;;;;14.83;6.25;;;;;;;;;;1844334;77;22238;-81
2021/01/18 07:57:24;;;;;;;13.48;6.58;;;;;;;;;;1794803;78;21233;-81
2021/01/18 07:59:50;;;;;;;14.65;6.60;;;;;;;;;;1801488;79;21143;-81
2021/01/18 08:02:23;;;;;;;12.65;6.75;;;;;;;;;;1772066;79;21076;-79
2021/01/18 08:04:51;;;;;;;14.75;7.85;;;;;;;;;;1799124;79;21349;-83
2021/01/18 08:07:17;;;;;;;14.60;6.72;;;;;;;;;;1807082;78;21745;-81
2021/01/18 08:09:45;;;;;;;14.10;6.95;;;;;;;;;;1798857;79;21184;-82
2021/01/18 08:12:34;;;;;;;12.03;6.25;;;;;;;;;;1803749;79;21138;-83
2021/01/18 08:15:06;;;;;;;17.45;7.83;;;;;;;;;;1749675;81;21812;-84
2021/01/18 08:17:32;;;;;;;14.98;7.00;;;;;;;;;;1739481;80;21303;-85
2021/01/18 08:20:21;;;;;;;16.73;7.35;;;;;;;;;;1751627;81;21157;-87
2021/01/18 08:22:41;;;;;;;16.67;7.67;;;;;;;;;;1751319;81;21206;-84
2021/01/18 08:25:07;;;;;;;16.67;7.83;;;;;;;;;;1750314;81;21152;-89
2021/01/18 08:27:35;;;;;;;16.82;7.53;;;;;;;;;;1752966;81;21568;-86
2021/01/18 08:30:03;;;;;;;19.82;7.30;;;;;;;;;;1750175;81;21175;-85
2021/01/18 08:32:36;;;;;;;18.35;8.03;;;;;;;;;;1755213;81;21143;-84
2021/01/18 08:35:07;;;;;;;15.15;7.70;;;;;;;;;;1751899;81;21234;-85
2021/01/18 08:37:38;;;;;;;14.47;7.20;;;;;;;;;;1755908;81;21173;-83
2021/01/18 08:40:09;;;;;;;17.90;7.65;;;;;;;;;;1754388;81;21147;-84
2021/01/18 08:42:36;;;;;;;18.30;8.00;;;;;;;;;;1749196;80;21138;-83
2021/01/18 08:45:04;;;;;;;9.85;4.58;;;;;;;;;;1749811;80;21159;-84
2021/01/18 08:47:34;;;;;;;15.30;7.60;;;;;;;;;;1751219;80;21242;-87
2021/01/18 08:50:20;;;;;;;16.35;7.60;;;;;;;;;;1754462;81;21131;-74
2021/01/18 08:52:47;;;;;;;16.80;7.95;;;;;;;;;;1749505;80;21159;-76
2021/01/18 08:55:31;;;;;;;17.25;8.20;;;;;;;;;;1738825;80;21164;-78
2021/01/18 08:57:58;;;;;;;14.83;7.45;;;;;;;;;;1741708;82;21148;-77
2021/01/18 09:00:25;;;;;;;16.40;6.67;;;;;;;;;;1735482;82;21198;-78
2021/01/18 09:02:52;;;;;;;16.25;7.50;;;;;;;;;;1712713;82;21154;-77
2021/01/18 09:05:21;;;;;;;15.68;7.05;;;;;;;;;;1738176;82;21140;-77
2021/01/18 09:07:51;;;;;;;12.78;6.70;;;;;;;;;;1742095;82;21140;-80
2021/01/18 09:10:21;;;;;;;14.87;7.25;;;;;;;;;;1735530;82;21199;-78
2021/01/18 09:12:49;;;;;;;14.95;7.03;;;;;;;;;;1740986;81;21129;-76
2021/01/18 09:15:17;;;;;;;15.95;7.12;;;;;;;;;;1727373;82;21567;-81
2021/01/18 09:17:43;;;;;;;17.92;7.15;;;;;;;;;;1752613;82;21262;-77
2021/01/18 09:20:14;;;;;;;18.55;7.53;;;;;;;;;;1745250;81;21163;-76
2021/01/18 09:22:43;;;;;;;14.25;6.53;;;;;;;;;;1724352;83;21176;-77
2021/01/18 09:25:16;;;;;;;16.65;6.70;;;;;;;;;;1732757;81;21608;-79
2021/01/18 09:27:44;;;;;;;15.58;6.05;;;;;;;;;;1740468;82;21718;-78
2021/01/18 09:30:11;;;;;;;14.98;6.25;;;;;;;;;;1738446;81;21136;-78
2021/01/18 09:32:38;;;;;;;17.65;8.28;;;;;;;;;;1747212;81;21124;-80
2021/01/18 09:35:06;;;;;;;16.07;8.03;;;;;;;;;;1739217;80;21153;-80
2021/01/18 09:37:32;;;;;;;14.85;6.50;;;;;;;;;;1740311;81;21155;-85
2021/01/18 09:40:02;;;;;;;17.32;7.12;;;;;;;;;;1736137;82;21140;-80
2021/01/18 09:42:28;;;;;;;11.43;6.62;;;;;;;;;;1731760;82;21597;-77
2021/01/18 09:44:54;;;;;;;13.53;6.83;;;;;;;;;;1739541;82;21539;-82
2021/01/18 09:47:22;;;;;;;14.85;6.80;;;;;;;;;;1731783;82;21576;-79
2021/01/18 09:49:49;;;;;;;15.63;6.53;;;;;;;;;;1737461;82;21261;-78
2021/01/18 09:52:15;;;;;;;13.53;6.60;;;;;;;;;;1746404;80;21519;-78
2021/01/18 09:54:43;;;;;;;13.83;6.78;;;;;;;;;;1739815;80;21130;-79
2021/01/18 09:57:10;;;;;;;13.03;5.08;;;;;;;;;;1734998;80;21157;-80
2021/01/18 09:59:42;;;;;;;12.85;6.00;;;;;;;;;;1737819;80;21171;-87
2021/01/18 10:02:10;;;;;;;12.30;5.62;;;;;;;;;;1736774;82;21144;-83
2021/01/18 10:04:37;;;;;;;12.03;6.28;;;;;;;;;;1739989;81;21136;-84
2021/01/18 10:07:03;;;;;;;13.65;6.20;;;;;;;;;;1736684;82;21199;-83
2021/01/18 10:09:32;;;;;;;14.30;6.97;;;;;;;;;;1743759;82;21155;-79
2021/01/18 10:12:00;;;;;;;11.30;5.97;;;;;;;;;;1738155;82;21175;-80
2021/01/18 10:14:31;;;;;;;13.53;6.25;;;;;;;;;;1742947;82;21190;-80
2021/01/18 10:17:03;;;;;;;15.78;5.97;;;;;;;;;;1739017;82;21124;-77
2021/01/18 10:19:34;;;;;;;13.80;6.15;;;;;;;;;;1741346;80;21226;-82
2021/01/18 10:22:02;;;;;;;10.65;5.75;;;;;;;;;;1745240;80;21582;-77
2021/01/18 10:24:33;;;;;;;12.68;5.90;;;;;;;;;;1753489;82;21160;-82
2021/01/18 10:27:06;;;;;;;8.88;4.45;;;;;;;;;;1724437;83;21144;-78
2021/01/18 10:29:33;;;;;;;10.48;4.65;;;;;;;;;;1724573;82;21152;-78
2021/01/18 10:32:03;;;;;;;12.65;5.17;;;;;;;;;;1752161;82;21252;-78
2021/01/18 10:34:40;;;;;;;10.55;5.03;;;;;;;;;;1736914;81;21639;-81
2021/01/18 10:37:17;;;;;;;10.85;5.47;;;;;;;;;;1730063;82;21282;-79
2021/01/18 10:39:41;;;;;;;12.95;5.40;;;;;;;;;;1752679;82;21188;-78
2021/01/18 10:42:15;;;;;;;10.88;5.50;;;;;;;;;;1754311;82;21576;-80
2021/01/18 10:44:49;;;;;;;13.53;5.37;;;;;;;;;;1754508;82;21184;-80
2021/01/18 10:47:18;;;;;;;10.35;4.67;;;;;;;;;;1754585;82;21168;-78
2021/01/18 10:49:49;;;;;;;10.35;5.33;;;;;;;;;;1754230;82;21813;-82
2021/01/18 10:52:17;;;;;;;12.75;5.42;;;;;;;;;;1742103;82;21149;-79
2021/01/18 10:54:45;;;;;;;20.15;4.72;;;;;;;;;;1745313;80;21601;-80
2021/01/18 10:57:18;;;;;;;11.30;5.95;;;;;;;;;;1740813;82;21212;-81
2021/01/18 10:59:44;;;;;;;14.40;5.42;;;;;;;;;;1752852;82;21638;-79
2021/01/18 11:02:12;;;;;;;13.28;5.55;;;;;;;;;;1746798;82;21179;-81
2021/01/18 11:04:45;;;;;;;13.38;6.12;;;;;;;;;;1730056;82;21395;-79
2021/01/18 11:07:11;;;;;;;12.03;5.90;;;;;;;;;;1737361;82;21627;-79
2021/01/18 11:09:37;;;;;;;12.73;6.97;;;;;;;;;;1752818;82;21220;-78
2021/01/18 11:12:08;;;;;;;15.83;6.67;;;;;;;;;;1753049;82;21160;-79
2021/01/18 11:14:34;;;;;;;16.30;7.75;;;;;;;;;;1728500;82;21161;-80
2021/01/18 11:17:03;;;;;;;15.93;8.05;;;;;;;;;;1722168;82;21143;-79
2021/01/18 11:19:31;;;;;;;17.17;8.73;;;;;;;;;;1724552;83;21591;-80
2021/01/18 11:21:58;;;;;;;14.63;6.85;;;;;;;;;;1735562;82;21594;-79
2021/01/18 11:24:24;;;;;;;12.53;6.70;;;;;;;;;;1754529;82;21184;-80
2021/01/18 11:26:54;;;;;;;14.55;7.05;;;;;;;;;;1754527;82;21578;-82
2021/01/18 11:29:20;;;;;;;16.35;8.03;;;;;;;;;;1754492;82;21156;-80
2021/01/18 11:31:47;;;;;;;17.98;8.73;;;;;;;;;;1753463;82;21144;-77
2021/01/18 11:34:14;;;;;;;13.62;7.85;;;;;;;;;;1752215;82;21175;-80
2021/01/18 11:36:40;;;;;;;12.65;6.47;;;;;;;;;;1750586;82;21535;-79
2021/01/18 11:39:08;;;;;;;15.53;6.80;;;;;;;;;;1752215;82;21112;-78
2021/01/18 11:41:34;;;;;;;16.40;7.60;;;;;;;;;;1742519;82;21191;-79
2021/01/18 11:44:01;;;;;;;16.10;7.25;;;;;;;;;;1724625;83;21144;-79
2021/01/18 11:46:28;;;;;;;17.75;7.78;;;;;;;;;;1740239;82;21132;-81
2021/01/18 11:48:56;;;;;;;15.65;8.58;;;;;;;;;;1747119;82;21152;-83
2021/01/18 11:51:22;;;;;;;13.75;7.00;;;;;;;;;;1726203;82;21161;-79
2021/01/18 11:53:48;;;;;;;12.78;6.35;;;;;;;;;;1727115;82;21139;-79
2021/01/18 11:56:16;;;;;;;13.93;5.97;;;;;;;;;;1724443;82;21163;-82
2021/01/18 11:58:49;;;;;;;13.05;6.08;;;;;;;;;;1724618;82;21128;-82
2021/01/18 12:01:17;;;;;;;13.40;6.70;;;;;;;;;;1724608;83;21230;-81
2021/01/18 12:03:45;;;;;;;16.52;7.83;;;;;;;;;;1723726;82;21172;-83
2021/01/18 12:06:17;;;;;;;16.75;8.20;;;;;;;;;;1725254;82;21217;-84
2021/01/18 12:08:43;;;;;;;15.23;7.37;;;;;;;;;;1737804;82;21563;-81
2021/01/18 12:11:12;;;;;;;13.85;7.22;;;;;;;;;;1733359;82;21167;-81
2021/01/18 12:13:37;;;;;;;14.10;7.58;;;;;;;;;;1734859;82;21168;-81
2021/01/18 12:16:04;;;;;;;19.05;9.80;;;;;;;;;;1724797;82;21179;-82
2021/01/18 12:18:30;;;;;;;24.82;11.93;;;;;;;;;;1724645;82;21603;-83
2021/01/18 12:20:57;;;;;;;22.32;10.98;;;;;;;;;;1724952;82;21176;-81
2021/01/18 12:23:23;;;;;;;23.65;11.28;;;;;;;;;;1724670;82;21631;-82
2021/01/18 12:25:51;;;;;;;23.18;9.80;;;;;;;;;;1744753;82;21124;-81
2021/01/18 12:28:20;;;;;;;22.30;10.68;;;;;;;;;;1754366;82;21176;-82
2021/01/18 12:30:48;;;;;;;22.15;10.25;;;;;;;;;;1754448;82;21168;-81
2021/01/18 12:33:14;;;;;;;19.48;8.95;;;;;;;;;;1754747;81;21175;-82
2021/01/18 12:35:41;;;;;;;19.02;9.60;;;;;;;;;;1754387;82;21148;-83
2021/01/18 12:38:08;;;;;;;23.55;9.90;;;;;;;;;;1732889;82;21152;-81
2021/01/18 12:40:38;;;;;;;20.37;9.38;;;;;;;;;;1754772;82;21568;-81
2021/01/18 12:43:05;;;;;;;20.45;10.15;;;;;;;;;;1753527;81;21152;-82
2021/01/18 12:45:33;;;;;;;22.00;10.72;;;;;;;;;;1752546;81;21202;-81
2021/01/18 12:48:01;;;;;;;16.75;9.05;;;;;;;;;;1736421;82;21578;-82
2021/01/18 12:50:27;;;;;;;18.55;10.13;;;;;;;;;;1739731;82;21547;-81
2021/01/18 12:52:54;;;;;;;15.43;7.78;;;;;;;;;;1738757;82;21168;-82
2021/01/18 12:55:20;;;;;;;21.27;8.88;;;;;;;;;;1726426;81;21177;-81
2021/01/18 12:57:50;;;;;;;16.32;8.58;;;;;;;;;;1736023;82;21151;-82
2021/01/18 13:00:16;;;;;;;20.12;9.53;;;;;;;;;;1725478;82;21160;-82
2021/01/18 13:02:48;;;;;;;20.75;9.15;;;;;;;;;;1749283;82;21116;-81
2021/01/18 13:05:17;;;;;;;16.60;8.80;;;;;;;;;;1754298;82;21760;-82
2021/01/18 13:07:46;;;;;;;22.58;10.82;;;;;;;;;;1745239;81;21322;-82
2021/01/18 13:10:14;;;;;;;24.85;10.72;;;;;;;;;;1724657;82;21156;-81
2021/01/18 13:12:44;;;;;;;22.37;11.03;;;;;;;;;;1727060;81;21128;-81
2021/01/18 13:15:12;;;;;;;17.57;9.10;;;;;;;;;;1720675;83;21152;-82
2021/01/18 13:17:52;;;;;;;17.00;9.25;;;;;;;;;;1730338;82;21132;-81
2021/01/18 13:20:09;;;;;;;15.95;8.98;;;;;;;;;;1724664;82;21160;-80
2021/01/18 13:22:45;;;;;;;17.75;7.95;;;;;;;;;;1724454;82;21227;-80
2021/01/18 13:25:10;;;;;;;20.60;9.18;;;;;;;;;;1704805;82;21557;-81
2021/01/18 13:27:34;;;;;;;24.43;9.68;;;;;;;;;;1661914;86;21625;-80
2021/01/18 13:30:12;;;;;;;19.67;8.40;;;;;;;;;;1695595;85;21135;-80
2021/01/18 13:32:46;;;;;;;23.73;9.98;;;;;;;;;;1662099;86;21168;-81
2021/01/18 13:35:07;;;;;;;19.62;9.03;;;;;;;;;;1692019;83;21168;-80
2021/01/18 13:37:44;;;;;;;21.42;9.20;;;;;;;;;;1662160;85;21153;-82
2021/01/18 13:42:49;;;;;;;21.37;9.83;;;;;;;;;;1673764;83;21144;-78
2021/01/18 13:45:36;;;;;;;21.07;10.25;;;;;;;;;;1685897;83;21181;-79
2021/01/18 13:48:06;;;;;;;21.20;9.38;;;;;;;;;;1704218;83;21512;-79
2021/01/18 13:50:36;;;;;;;21.00;9.78;;;;;;;;;;1722358;82;21238;-77
2021/01/18 13:53:03;;;;;;;26.52;12.10;;;;;;;;;;1711431;83;21175;-78
2021/01/18 13:55:31;;;;;;;29.98;12.43;;;;;;;;;;1728848;80;21107;-78
2021/01/18 13:57:57;;;;;;;21.87;9.03;;;;;;;;;;1743470;81;21598;-80
2021/01/18 14:00:25;;;;;;;27.87;13.38;;;;;;;;;;1741542;81;21607;-77
2021/01/18 14:02:59;;;;;;;23.67;10.80;;;;;;;;;;1767071;81;21103;-83
2021/01/18 14:05:30;;;;;;;37.67;14.47;;;;;;;;;;1746310;81;21629;-80
2021/01/18 14:08:00;;;;;;;30.12;11.63;;;;;;;;;;1758224;81;21127;-81
2021/01/18 14:10:27;;;;;;;23.87;10.45;;;;;;;;;;1746312;81;21559;-81
2021/01/18 14:12:57;;;;;;;26.93;11.83;;;;;;;;;;1748195;81;21123;-79
2021/01/18 14:15:21;;;;;;;26.02;12.33;;;;;;;;;;1748122;81;21122;-80
2021/01/18 14:17:49;;;;;;;27.32;11.93;;;;;;;;;;1773859;80;21127;-82
2021/01/18 14:20:15;;;;;;;27.93;9.90;;;;;;;;;;1769170;80;21515;-82
2021/01/18 14:22:46;;;;;;;30.68;13.15;;;;;;;;;;1727261;81;21385;-80
2021/01/18 14:25:17;;;;;;;30.45;13.20;;;;;;;;;;1709817;83;21176;-81
2021/01/18 14:27:45;;;;;;;30.10;13.25;;;;;;;;;;1705362;83;21180;-80
2021/01/18 14:30:19;;;;;;;25.15;11.45;;;;;;;;;;1717063;83;21192;-81
2021/01/18 14:32:48;;;;;;;19.20;8.08;;;;;;;;;;1718940;82;21212;-81
2021/01/18 14:35:18;;;;;;;27.58;11.48;;;;;;;;;;1719037;82;21148;-82
2021/01/18 14:37:46;;;;;;;19.40;8.90;;;;;;;;;;1704319;83;21144;-82
2021/01/18 14:40:23;;;;;;;27.93;12.50;;;;;;;;;;1707203;83;21172;-82
2021/01/18 14:42:53;;;;;;;28.02;12.43;;;;;;;;;;1715000;83;21282;-81
2021/01/18 14:45:25;;;;;;;28.77;13.20;;;;;;;;;;1690003;84;21164;-81
2021/01/18 14:47:52;;;;;;;33.18;12.90;;;;;;;;;;1687271;85;21640;-81
2021/01/18 14:50:20;;;;;;;28.60;12.78;;;;;;;;;;1696126;83;21570;-81
2021/01/18 14:52:47;;;;;;;28.55;12.73;;;;;;;;;;1719148;82;21161;-82
2021/01/18 14:55:13;;;;;;;33.42;13.75;;;;;;;;;;1707429;82;21139;-80
2021/01/18 14:57:43;;;;;;;33.45;12.58;;;;;;;;;;1714243;82;22020;-81
2021/01/18 15:00:09;;;;;;;32.80;12.47;;;;;;;;;;1712788;83;21106;-78
2021/01/18 15:02:38;;;;;;;28.85;12.23;;;;;;;;;;1706767;83;21112;-82
2021/01/18 15:05:05;;;;;;;26.70;12.65;;;;;;;;;;1692012;83;21155;-81
2021/01/18 15:07:33;;;;;;;31.80;12.30;;;;;;;;;;1715936;83;21171;-80
2021/01/18 15:09:59;;;;;;;40.38;13.70;;;;;;;;;;1764270;81;21205;-85
2021/01/18 15:12:25;;;;;;;29.77;11.70;;;;;;;;;;1756896;81;21383;-75
2021/01/18 15:14:52;;;;;;;31.40;13.18;;;;;;;;;;1771595;80;21177;-78
2021/01/18 15:17:18;;;;;;;35.60;14.65;;;;;;;;;;1771310;81;21130;-77
2021/01/18 15:19:44;;;;;;;32.60;13.13;;;;;;;;;;1769358;81;21256;-81
2021/01/18 15:22:10;;;;;;;31.40;14.35;;;;;;;;;;1773972;81;21150;-80
2021/01/18 15:24:38;;;;;;;32.78;11.83;;;;;;;;;;1772219;81;21139;-80
2021/01/18 15:27:07;;;;;;;41.00;14.15;;;;;;;;;;1754890;81;21138;-80
2021/01/18 15:29:33;;;;;;;31.17;13.53;;;;;;;;;;1774017;81;21147;-80
2021/01/18 15:32:01;;;;;;;38.02;15.75;;;;;;;;;;1772846;80;21092;-80
2021/01/18 15:34:27;;;;;;;36.17;14.30;;;;;;;;;;1770119;81;21155;-78
2021/01/18 15:36:54;;;;;;;34.33;13.70;;;;;;;;;;1732769;81;21134;-77
2021/01/18 15:39:25;;;;;;;33.70;14.00;;;;;;;;;;1772167;81;21582;-78
2021/01/18 15:41:52;;;;;;;30.00;14.43;;;;;;;;;;1773598;81;21135;-78
2021/01/18 15:44:19;;;;;;;35.87;15.27;;;;;;;;;;1773750;80;21115;-78
2021/01/18 15:46:47;;;;;;;37.67;14.68;;;;;;;;;;1774062;80;21167;-78
2021/01/18 15:49:13;;;;;;;33.63;14.18;;;;;;;;;;1773495;80;21569;-78
2021/01/18 15:51:44;;;;;;;29.87;12.75;;;;;;;;;;1773941;80;21574;-79
2021/01/18 15:54:10;;;;;;;34.83;14.10;;;;;;;;;;1773681;81;21116;-78
2021/01/18 15:56:37;;;;;;;37.65;14.90;;;;;;;;;;1786643;80;21154;-78
2021/01/18 15:59:05;;;;;;;31.37;14.25;;;;;;;;;;1768990;79;21248;-78
2021/01/18 16:01:31;;;;;;;33.80;13.68;;;;;;;;;;1784488;80;21118;-76
2021/01/18 16:03:58;;;;;;;35.00;14.45;;;;;;;;;;1763951;79;21181;-78
2021/01/18 16:06:25;;;;;;;31.15;12.53;;;;;;;;;;1788435;79;21201;-77
2021/01/18 16:08:54;;;;;;;36.50;15.13;;;;;;;;;;1788176;79;21141;-76
2021/01/18 16:11:32;;;;;;;35.23;14.78;;;;;;;;;;1788010;79;21146;-78
2021/01/18 16:13:57;;;;;;;29.67;12.95;;;;;;;;;;1759255;80;21135;-77
2021/01/18 16:16:26;;;;;;;38.15;15.05;;;;;;;;;;1774920;79;21183;-81
2021/01/18 16:18:53;;;;;;;35.55;14.98;;;;;;;;;;1746541;81;21288;-79
2021/01/18 16:21:22;;;;;;;32.80;14.75;;;;;;;;;;1731173;81;21136;-76
2021/01/18 16:23:52;;;;;;;34.70;13.80;;;;;;;;;;1741683;82;21112;-75
2021/01/18 16:26:19;;;;;;;35.80;14.47;;;;;;;;;;1736972;82;21160;-76
2021/01/18 16:28:46;;;;;;;28.10;13.25;;;;;;;;;;1688395;84;21150;-76
2021/01/18 16:31:17;;;;;;;35.10;15.50;;;;;;;;;;1714997;83;21180;-76
2021/01/18 16:33:48;;;;;;;34.05;13.53;;;;;;;;;;1688821;85;21197;-75
2021/01/18 16:36:21;;;;;;;31.60;13.18;;;;;;;;;;1714952;83;21176;-76
2021/01/18 16:38:51;;;;;;;24.70;10.63;;;;;;;;;;1688857;84;21165;-74
2021/01/18 16:41:18;;;;;;;24.07;10.53;;;;;;;;;;1715208;83;21158;-76
2021/01/18 16:43:44;;;;;;;25.72;11.48;;;;;;;;;;1723408;82;21187;-75
2021/01/18 16:46:17;;;;;;;21.95;9.55;;;;;;;;;;1723735;82;21211;-74
2021/01/18 16:48:43;;;;;;;25.15;11.18;;;;;;;;;;1715126;83;21265;-76
2021/01/18 16:51:10;;;;;;;27.10;11.22;;;;;;;;;;1681913;83;21143;-75
2021/01/18 16:53:38;;;;;;;32.20;12.98;;;;;;;;;;1710551;83;21176;-74
2021/01/18 16:56:05;;;;;;;23.25;9.53;;;;;;;;;;1734905;81;21160;-74
2021/01/18 16:58:31;;;;;;;31.42;13.35;;;;;;;;;;1724886;82;21582;-74
2021/01/18 17:00:57;;;;;;;31.82;12.75;;;;;;;;;;1774366;81;21154;-73
2021/01/18 17:03:25;;;;;;;33.42;13.48;;;;;;;;;;1723731;81;21187;-73
2021/01/18 17:05:51;;;;;;;29.57;12.55;;;;;;;;;;1692207;84;21160;-74
2021/01/18 17:08:17;;;;;;;35.85;14.80;;;;;;;;;;1699428;84;21157;-74
2021/01/18 17:10:44;;;;;;;33.73;14.50;;;;;;;;;;1714204;82;21129;-74
2021/01/18 17:13:10;;;;;;;32.90;13.88;;;;;;;;;;1690208;83;21588;-72
2021/01/18 17:15:36;;;;;;;32.75;13.55;;;;;;;;;;1694942;83;21171;-74
2021/01/18 17:18:02;;;;;;;29.27;13.58;;;;;;;;;;1704391;84;21188;-73
2021/01/18 17:20:29;;;;;;;34.23;14.90;;;;;;;;;;1714024;82;21149;-73
2021/01/18 17:22:55;;;;;;;32.95;14.63;;;;;;;;;;1693371;84;21215;-73
2021/01/18 17:25:21;;;;;;;35.23;14.50;;;;;;;;;;1705338;84;21549;-74
2021/01/18 17:27:48;;;;;;;40.00;16.37;;;;;;;;;;1713896;82;21150;-73
2021/01/18 17:30:14;;;;;;;39.65;16.15;;;;;;;;;;1712568;83;21153;-74
2021/01/18 17:32:42;;;;;;;36.83;15.23;;;;;;;;;;1713904;82;21135;-74
2021/01/18 17:35:09;;;;;;;39.03;16.60;;;;;;;;;;1698362;83;21544;-75
2021/01/18 17:37:35;;;;;;;40.33;17.10;;;;;;;;;;1705875;83;21170;-74
2021/01/18 17:40:01;;;;;;;41.50;16.87;;;;;;;;;;1756000;81;21126;-74
2021/01/18 17:42:27;;;;;;;34.70;15.85;;;;;;;;;;1768549;80;21124;-73
2021/01/18 17:44:53;;;;;;;36.63;16.73;;;;;;;;;;1747276;81;21214;-73
2021/01/18 17:47:20;;;;;;;39.85;16.95;;;;;;;;;;1743498;81;21610;-73
2021/01/18 17:49:48;;;;;;;42.05;16.10;;;;;;;;;;1751973;79;21157;-74
2021/01/18 17:52:16;;;;;;;43.75;18.23;;;;;;;;;;1763666;80;21167;-73
2021/01/18 17:54:45;;;;;;;43.23;17.37;;;;;;;;;;1750340;79;21119;-74
2021/01/18 17:57:13;;;;;;;42.17;17.65;;;;;;;;;;1769713;80;21157;-72
2021/01/18 17:59:40;;;;;;;43.33;17.42;;;;;;;;;;1772407;79;21154;-73
2021/01/18 18:02:12;;;;;;;43.42;15.80;;;;;;;;;;1789980;79;21157;-72
2021/01/18 18:04:34;;;;;;;39.55;17.17;;;;;;;;;;1798494;79;21645;-74
2021/01/18 18:07:04;;;;;;;47.20;17.98;;;;;;;;;;1788504;80;21166;-74
2021/01/18 18:09:31;;;;;;;44.13;18.50;;;;;;;;;;1788373;79;21131;-74
2021/01/18 18:11:58;;;;;;;40.98;17.52;;;;;;;;;;1788239;79;21115;-74
2021/01/18 18:14:24;;;;;;;53.45;20.95;;;;;;;;;;1762123;80;21198;-74
2021/01/18 18:16:50;;;;;;;49.03;19.20;;;;;;;;;;1768094;79;21149;-73
2021/01/18 18:19:16;;;;;;;48.87;20.82;;;;;;;;;;1757463;80;21609;-75
2021/01/18 18:21:43;;;;;;;49.33;20.12;;;;;;;;;;1757356;81;21227;-73
2021/01/18 18:24:09;;;;;;;46.42;19.02;;;;;;;;;;1758072;80;21158;-74
2021/01/18 18:26:40;;;;;;;50.20;20.05;;;;;;;;;;1770704;79;21145;-73
2021/01/18 18:29:06;;;;;;;51.70;19.32;;;;;;;;;;1787960;79;21182;-75
2021/01/18 18:31:34;;;;;;;54.33;19.50;;;;;;;;;;1768074;79;21146;-73
2021/01/18 18:34:01;;;;;;;49.48;20.45;;;;;;;;;;1756989;82;21170;-74
2021/01/18 18:36:28;;;;;;;53.68;20.43;;;;;;;;;;1760025;80;21257;-73
2021/01/18 18:38:54;;;;;;;47.85;20.62;;;;;;;;;;1758713;80;21191;-75
2021/01/18 18:41:20;;;;;;;49.08;20.92;;;;;;;;;;1763790;79;21569;-76
2021/01/18 18:43:52;;;;;;;47.15;19.90;;;;;;;;;;1780625;79;21126;-77
2021/01/18 18:46:30;;;;;;;54.77;21.48;;;;;;;;;;1779553;80;21157;-77
2021/01/18 18:48:58;;;;;;;52.08;20.55;;;;;;;;;;1778272;80;21272;-76
2021/01/18 18:51:58;;;;;;;55.95;21.70;;;;;;;;;;1742496;80;21264;-77
2021/01/18 18:54:28;;;;;;;53.92;20.17;;;;;;;;;;1757585;80;21264;-75
2021/01/18 18:56:56;;;;;;;51.80;18.95;;;;;;;;;;1761146;80;21146;-76
2021/01/18 18:59:23;;;;;;;50.78;18.98;;;;;;;;;;1774741;80;21099;-76
2021/01/18 19:01:54;;;;;;;50.65;19.75;;;;;;;;;;1789488;79;21127;-73
2021/01/18 19:04:21;;;;;;;50.38;18.62;;;;;;;;;;1766164;79;21147;-76
2021/01/18 19:06:47;;;;;;;43.45;17.57;;;;;;;;;;1781351;80;21138;-76
2021/01/18 19:09:14;;;;;;;51.73;19.97;;;;;;;;;;1769580;79;21139;-76
2021/01/18 19:11:40;;;;;;;50.33;18.83;;;;;;;;;;1758160;79;21684;-75
2021/01/18 19:14:06;;;;;;;52.35;19.57;;;;;;;;;;1759147;80;21134;-75
2021/01/18 19:16:32;;;;;;;49.83;19.90;;;;;;;;;;1757050;80;21181;-75
2021/01/18 19:18:59;;;;;;;56.23;22.17;;;;;;;;;;1757549;80;21194;-74
2021/01/18 19:21:25;;;;;;;51.33;21.15;;;;;;;;;;1769971;79;21586;-74
2021/01/18 19:23:51;;;;;;;55.05;19.82;;;;;;;;;;1788005;79;21118;-77
2021/01/18 19:26:18;;;;;;;47.95;18.77;;;;;;;;;;1788132;80;21181;-77
2021/01/18 19:28:45;;;;;;;54.95;19.92;;;;;;;;;;1787050;80;21106;-78
2021/01/18 19:31:15;;;;;;;54.93;18.77;;;;;;;;;;1787805;80;21103;-76
2021/01/18 19:33:41;;;;;;;46.05;19.25;;;;;;;;;;1779645;80;21162;-77
2021/01/18 19:36:08;;;;;;;51.70;20.02;;;;;;;;;;1776235;80;21123;-76
2021/01/18 19:38:34;;;;;;;51.50;18.10;;;;;;;;;;1718639;82;21145;-77
2021/01/18 19:41:00;;;;;;;52.55;19.77;;;;;;;;;;1724786;82;21144;-77
2021/01/18 19:43:26;;;;;;;44.40;16.15;;;;;;;;;;1727933;82;21175;-77
2021/01/18 19:45:52;;;;;;;48.28;19.40;;;;;;;;;;1727546;82;21572;-77
2021/01/18 19:48:19;;;;;;;51.65;19.87;;;;;;;;;;1719045;82;21598;-77
2021/01/18 19:50:45;;;;;;;56.45;20.40;;;;;;;;;;1716695;83;21144;-77
2021/01/18 19:53:12;;;;;;;51.98;19.90;;;;;;;;;;1727456;82;21180;-77
2021/01/18 19:55:42;;;;;;;50.92;19.42;;;;;;;;;;1718798;82;21595;-77
2021/01/18 19:58:08;;;;;;;46.30;18.75;;;;;;;;;;1708868;83;21121;-77
2021/01/18 20:00:34;;;;;;;56.55;20.08;;;;;;;;;;1702814;82;21333;-76
2021/01/18 20:03:00;;;;;;;43.75;17.20;;;;;;;;;;1724353;82;21184;-76
2021/01/18 20:05:27;;;;;;;39.38;17.48;;;;;;;;;;1712656;82;21159;-78
2021/01/18 20:07:53;;;;;;;39.03;15.27;;;;;;;;;;1719859;83;21191;-77
2021/01/18 20:10:19;;;;;;;42.15;15.38;;;;;;;;;;1782716;79;21166;-76
2021/01/18 20:12:45;;;;;;;39.88;14.00;;;;;;;;;;1782829;79;21634;-77
2021/01/18 20:15:14;;;;;;;37.38;14.35;;;;;;;;;;1776779;80;21218;-77
2021/01/18 20:17:40;;;;;;;44.05;14.68;;;;;;;;;;1752363;80;21111;-77
2021/01/18 20:20:07;;;;;;;46.55;16.67;;;;;;;;;;1762574;80;21561;-77
2021/01/18 20:22:33;;;;;;;35.92;15.90;;;;;;;;;;1782787;79;21138;-76
2021/01/18 20:24:59;;;;;;;45.28;16.32;;;;;;;;;;1769366;79;21580;-78
2021/01/18 20:27:26;;;;;;;37.30;15.05;;;;;;;;;;1769845;80;21134;-77
2021/01/18 20:29:52;;;;;;;32.83;14.50;;;;;;;;;;1781675;79;21570;-76
2021/01/18 20:32:20;;;;;;;35.80;14.70;;;;;;;;;;1782791;80;21107;-77
2021/01/18 20:34:46;;;;;;;38.10;14.58;;;;;;;;;;1762686;79;21190;-77
2021/01/18 20:37:12;;;;;;;44.25;16.45;;;;;;;;;;1752759;80;21198;-78
2021/01/18 20:39:38;;;;;;;42.73;15.83;;;;;;;;;;1752163;81;21142;-78
2021/01/18 20:42:06;;;;;;;40.45;15.03;;;;;;;;;;1754070;80;21158;-77
2021/01/18 20:44:33;;;;;;;37.93;15.05;;;;;;;;;;1752159;80;21194;-76
2021/01/18 20:46:59;;;;;;;41.73;16.20;;;;;;;;;;1752714;80;21565;-75
2021/01/18 20:49:26;;;;;;;38.48;15.38;;;;;;;;;;1752046;80;21166;-77
2021/01/18 20:51:57;;;;;;;41.63;15.72;;;;;;;;;;1773018;80;21169;-76
2021/01/18 20:54:23;;;;;;;44.33;16.97;;;;;;;;;;1752490;80;21637;-76
2021/01/18 20:56:51;;;;;;;44.07;16.20;;;;;;;;;;1748225;81;21162;-77
2021/01/18 20:59:17;;;;;;;45.83;17.70;;;;;;;;;;1743482;81;21170;-77
2021/01/18 21:01:44;;;;;;;44.33;17.62;;;;;;;;;;1760273;81;21138;-77
2021/01/18 21:04:10;;;;;;;43.33;17.33;;;;;;;;;;1773848;81;21177;-76
2021/01/18 21:06:37;;;;;;;45.80;17.70;;;;;;;;;;1746211;81;21585;-76
2021/01/18 21:09:05;;;;;;;46.53;17.63;;;;;;;;;;1743526;82;21218;-77
2021/01/18 21:11:31;;;;;;;45.83;17.67;;;;;;;;;;1745748;81;21539;-75
2021/01/18 21:13:57;;;;;;;44.55;18.17;;;;;;;;;;1745386;80;21194;-76
2021/01/18 21:16:24;;;;;;;46.20;18.87;;;;;;;;;;1743935;81;21167;-76
2021/01/18 21:18:50;;;;;;;46.40;17.48;;;;;;;;;;1750690;81;21151;-76
2021/01/18 21:21:28;;;;;;;45.33;18.67;;;;;;;;;;1766900;80;21178;-76
2021/01/18 21:23:59;;;;;;;44.87;19.07;;;;;;;;;;1745533;81;21203;-76
2021/01/18 21:26:28;;;;;;;48.15;18.37;;;;;;;;;;1743882;81;21143;-74
2021/01/18 21:28:54;;;;;;;49.90;18.87;;;;;;;;;;1747358;81;21174;-76
2021/01/18 21:31:20;;;;;;;44.10;17.40;;;;;;;;;;1758681;81;21574;-77
2021/01/18 21:33:46;;;;;;;47.70;17.00;;;;;;;;;;1746981;81;21130;-75
2021/01/18 21:36:14;;;;;;;47.27;19.92;;;;;;;;;;1743455;82;21147;-76
2021/01/18 21:38:41;;;;;;;47.27;17.87;;;;;;;;;;1744944;81;21159;-77
2021/01/18 21:41:07;;;;;;;53.93;19.90;;;;;;;;;;1743705;81;21594;-76
2021/01/18 21:43:34;;;;;;;54.30;21.93;;;;;;;;;;1743913;81;21163;-77
2021/01/18 21:46:00;;;;;;;55.03;20.10;;;;;;;;;;1743720;82;21195;-77
2021/01/18 21:48:26;;;;;;;61.83;21.30;;;;;;;;;;1744109;81;21178;-77
2021/01/18 21:50:52;;;;;;;61.73;21.63;;;;;;;;;;1773678;81;21151;-76
2021/01/18 21:53:18;;;;;;;50.23;20.70;;;;;;;;;;1774481;81;21249;-76
2021/01/18 21:55:44;;;;;;;60.80;21.17;;;;;;;;;;1774279;81;21152;-77
2021/01/18 21:58:11;;;;;;;53.77;19.50;;;;;;;;;;1774318;80;21158;-76
2021/01/18 22:00:37;;;;;;;59.43;20.80;;;;;;;;;;1771823;80;21131;-76
2021/01/18 22:03:03;;;;;;;60.43;21.80;;;;;;;;;;1774189;80;21154;-76
2021/01/18 22:05:30;;;;;;;66.90;22.37;;;;;;;;;;1774436;81;21116;-74
2021/01/18 22:07:56;;;;;;;62.83;20.90;;;;;;;;;;1774144;80;21606;-75
2021/01/18 22:10:22;;;;;;;57.53;21.47;;;;;;;;;;1771951;81;21127;-76
2021/01/18 22:12:48;;;;;;;55.53;21.07;;;;;;;;;;1773673;80;21138;-76
2021/01/18 22:15:14;;;;;;;62.77;22.60;;;;;;;;;;1774119;81;21143;-77
2021/01/18 22:17:40;;;;;;;59.33;22.63;;;;;;;;;;1774383;80;21151;-77
2021/01/18 22:20:08;;;;;;;65.37;22.47;;;;;;;;;;1772041;81;21178;-76
2021/01/18 22:22:34;;;;;;;58.63;22.03;;;;;;;;;;1773922;80;21163;-76